Lava Beds National Monument, California
Current Conditions -  °F | °C
As of 12:53 AM on Saturday 22 Nov 2014 (Local Time) from KLMT Reporting Station
Light Rain Light Rain  
Wind Chill: 35°   Ceiling: 2100
Heat Index: 43°   Visibility: 10mi
Dew Point: 38°   Wind: 16mph
Humidity: 82%   Direction: 180°S
Pressure: 29.8"   Gusts: NA
Location:  41.7207°N, 121.463°W
Report Text: KLMT 220853Z AUTO 18014KT 10SM -RA OVC021 06/03 A2980 RMK AO2 SLP087 P0001 60002 T00610033 56013
Loading
Personal Weather Stations






























Interactive Weather Map New forecast layout! Learn more

10-Day Weather Forecast

Advertisements
Track Severe Weather on mobile